sensor_id;sensor_type;location;lat;lon;timestamp;P1;durP1;ratioP1;P2;durP2;ratioP2
7031;SDS011;3557;48.880;8.328;2023-11-21T00:01:12;3.53;;;1.60;;
7031;SDS011;3557;48.880;8.328;2023-11-21T00:03:40;5.25;;;1.65;;
7031;SDS011;3557;48.880;8.328;2023-11-21T00:06:07;2.83;;;1.75;;
7031;SDS011;3557;48.880;8.328;2023-11-21T00:08:36;2.30;;;1.23;;
7031;SDS011;3557;48.880;8.328;2023-11-21T00:11:04;2.17;;;1.27;;
7031;SDS011;3557;48.880;8.328;2023-11-21T00:13:31;2.80;;;1.50;;
7031;SDS011;3557;48.880;8.328;2023-11-21T00:15:59;3.83;;;1.13;;
7031;SDS011;3557;48.880;8.328;2023-11-21T00:18:26;3.85;;;1.35;;
7031;SDS011;3557;48.880;8.328;2023-11-21T00:20:53;3.28;;;1.27;;
7031;SDS011;3557;48.880;8.328;2023-11-21T00:23:24;2.40;;;1.20;;
7031;SDS011;3557;48.880;8.328;2023-11-21T00:25:52;5.20;;;1.20;;
7031;SDS011;3557;48.880;8.328;2023-11-21T00:28:20;3.92;;;1.50;;
7031;SDS011;3557;48.880;8.328;2023-11-21T00:30:47;3.38;;;1.30;;
7031;SDS011;3557;48.880;8.328;2023-11-21T00:33:14;4.78;;;1.35;;
7031;SDS011;3557;48.880;8.328;2023-11-21T00:35:42;2.95;;;1.38;;
7031;SDS011;3557;48.880;8.328;2023-11-21T00:38:09;3.47;;;1.30;;
7031;SDS011;3557;48.880;8.328;2023-11-21T00:40:36;5.05;;;1.80;;
7031;SDS011;3557;48.880;8.328;2023-11-21T00:43:05;3.25;;;1.58;;
7031;SDS011;3557;48.880;8.328;2023-11-21T00:45:32;5.45;;;1.60;;
7031;SDS011;3557;48.880;8.328;2023-11-21T00:48:01;3.47;;;1.30;;
7031;SDS011;3557;48.880;8.328;2023-11-21T00:50:30;4.35;;;1.40;;
7031;SDS011;3557;48.880;8.328;2023-11-21T00:52:57;3.85;;;1.20;;
7031;SDS011;3557;48.880;8.328;2023-11-21T00:55:24;4.30;;;1.75;;
7031;SDS011;3557;48.880;8.328;2023-11-21T00:57:53;5.97;;;1.70;;
7031;SDS011;3557;48.880;8.328;2023-11-21T01:00:21;3.60;;;1.30;;
7031;SDS011;3557;48.880;8.328;2023-11-21T01:02:49;3.78;;;1.30;;
7031;SDS011;3557;48.880;8.328;2023-11-21T01:05:17;3.00;;;1.45;;
7031;SDS011;3557;48.880;8.328;2023-11-21T01:07:45;2.95;;;1.42;;
7031;SDS011;3557;48.880;8.328;2023-11-21T01:10:12;2.97;;;1.30;;
7031;SDS011;3557;48.880;8.328;2023-11-21T01:12:40;2.45;;;1.20;;
7031;SDS011;3557;48.880;8.328;2023-11-21T01:15:07;2.58;;;1.20;;
7031;SDS011;3557;48.880;8.328;2023-11-21T01:17:38;2.63;;;1.30;;
7031;SDS011;3557;48.880;8.328;2023-11-21T01:20:06;3.08;;;1.23;;
7031;SDS011;3557;48.880;8.328;2023-11-21T01:22:37;2.63;;;1.20;;
7031;SDS011;3557;48.880;8.328;2023-11-21T01:25:04;3.38;;;1.30;;
7031;SDS011;3557;48.880;8.328;2023-11-21T01:27:33;5.45;;;1.35;;
7031;SDS011;3557;48.880;8.328;2023-11-21T01:30:00;4.15;;;1.35;;
7031;SDS011;3557;48.880;8.328;2023-11-21T01:32:28;1.48;;;1.20;;
7031;SDS011;3557;48.880;8.328;2023-11-21T01:34:57;2.80;;;1.30;;
7031;SDS011;3557;48.880;8.328;2023-11-21T01:37:25;3.08;;;1.30;;
7031;SDS011;3557;48.880;8.328;2023-11-21T01:39:53;3.95;;;1.50;;
7031;SDS011;3557;48.880;8.328;2023-11-21T01:42:21;4.07;;;1.30;;
7031;SDS011;3557;48.880;8.328;2023-11-21T01:44:48;4.80;;;2.20;;
7031;SDS011;3557;48.880;8.328;2023-11-21T01:47:15;5.63;;;2.10;;
7031;SDS011;3557;48.880;8.328;2023-11-21T01:49:43;4.20;;;1.20;;
7031;SDS011;3557;48.880;8.328;2023-11-21T01:52:12;4.57;;;1.55;;
7031;SDS011;3557;48.880;8.328;2023-11-21T01:54:40;4.22;;;1.52;;
7031;SDS011;3557;48.880;8.328;2023-11-21T01:57:08;2.28;;;1.10;;
7031;SDS011;3557;48.880;8.328;2023-11-21T01:59:36;3.03;;;1.50;;
7031;SDS011;3557;48.880;8.328;2023-11-21T02:02:04;1.90;;;1.30;;
7031;SDS011;3557;48.880;8.328;2023-11-21T02:04:33;6.13;;;1.60;;
7031;SDS011;3557;48.880;8.328;2023-11-21T02:07:02;4.13;;;1.40;;
7031;SDS011;3557;48.880;8.328;2023-11-21T02:09:32;2.13;;;1.27;;
7031;SDS011;3557;48.880;8.328;2023-11-21T02:12:00;4.07;;;1.70;;
7031;SDS011;3557;48.880;8.328;2023-11-21T02:14:27;5.25;;;1.23;;
7031;SDS011;3557;48.880;8.328;2023-11-21T02:16:55;6.28;;;1.45;;
7031;SDS011;3557;48.880;8.328;2023-11-21T02:19:23;2.60;;;1.27;;
7031;SDS011;3557;48.880;8.328;2023-11-21T02:21:51;4.03;;;1.38;;
7031;SDS011;3557;48.880;8.328;2023-11-21T02:24:21;2.95;;;1.27;;
7031;SDS011;3557;48.880;8.328;2023-11-21T02:26:50;4.53;;;1.40;;
7031;SDS011;3557;48.880;8.328;2023-11-21T02:29:17;3.83;;;1.27;;
7031;SDS011;3557;48.880;8.328;2023-11-21T02:31:47;2.70;;;1.65;;
7031;SDS011;3557;48.880;8.328;2023-11-21T02:34:16;4.00;;;1.38;;
7031;SDS011;3557;48.880;8.328;2023-11-21T02:36:44;3.85;;;1.30;;
7031;SDS011;3557;48.880;8.328;2023-11-21T02:39:12;5.90;;;1.50;;
7031;SDS011;3557;48.880;8.328;2023-11-21T02:41:41;4.13;;;1.98;;
7031;SDS011;3557;48.880;8.328;2023-11-21T02:44:09;5.32;;;1.50;;
7031;SDS011;3557;48.880;8.328;2023-11-21T02:46:37;5.47;;;2.10;;
7031;SDS011;3557;48.880;8.328;2023-11-21T02:49:06;5.20;;;1.70;;
7031;SDS011;3557;48.880;8.328;2023-11-21T02:51:35;5.43;;;1.50;;
7031;SDS011;3557;48.880;8.328;2023-11-21T02:54:05;6.95;;;1.77;;
7031;SDS011;3557;48.880;8.328;2023-11-21T02:56:33;4.85;;;2.08;;
7031;SDS011;3557;48.880;8.328;2023-11-21T02:59:03;7.70;;;2.80;;
7031;SDS011;3557;48.880;8.328;2023-11-21T03:01:30;5.30;;;1.73;;
7031;SDS011;3557;48.880;8.328;2023-11-21T03:03:58;5.68;;;2.05;;
7031;SDS011;3557;48.880;8.328;2023-11-21T03:06:25;4.78;;;2.17;;
7031;SDS011;3557;48.880;8.328;2023-11-21T03:08:53;7.80;;;3.25;;
7031;SDS011;3557;48.880;8.328;2023-11-21T03:11:20;7.70;;;2.58;;
7031;SDS011;3557;48.880;8.328;2023-11-21T03:13:48;5.82;;;1.90;;
7031;SDS011;3557;48.880;8.328;2023-11-21T03:16:16;10.75;;;4.10;;
7031;SDS011;3557;48.880;8.328;2023-11-21T03:18:45;7.00;;;2.30;;
7031;SDS011;3557;48.880;8.328;2023-11-21T03:21:12;6.03;;;3.42;;
7031;SDS011;3557;48.880;8.328;2023-11-21T03:23:40;4.57;;;2.40;;
7031;SDS011;3557;48.880;8.328;2023-11-21T03:26:11;6.30;;;2.70;;
7031;SDS011;3557;48.880;8.328;2023-11-21T03:28:39;7.18;;;1.88;;
7031;SDS011;3557;48.880;8.328;2023-11-21T03:31:07;6.25;;;2.22;;
7031;SDS011;3557;48.880;8.328;2023-11-21T03:33:36;8.52;;;3.80;;
7031;SDS011;3557;48.880;8.328;2023-11-21T03:36:03;6.68;;;2.95;;
7031;SDS011;3557;48.880;8.328;2023-11-21T03:38:33;4.07;;;2.03;;
7031;SDS011;3557;48.880;8.328;2023-11-21T03:41:00;12.02;;;5.28;;
7031;SDS011;3557;48.880;8.328;2023-11-21T03:43:27;5.15;;;3.15;;
7031;SDS011;3557;48.880;8.328;2023-11-21T03:45:55;4.57;;;2.60;;
7031;SDS011;3557;48.880;8.328;2023-11-21T03:48:23;3.58;;;1.83;;
7031;SDS011;3557;48.880;8.328;2023-11-21T03:50:51;3.90;;;2.40;;
7031;SDS011;3557;48.880;8.328;2023-11-21T03:53:19;2.63;;;1.52;;
7031;SDS011;3557;48.880;8.328;2023-11-21T03:55:46;3.40;;;1.40;;
7031;SDS011;3557;48.880;8.328;2023-11-21T03:58:14;4.88;;;1.30;;
7031;SDS011;3557;48.880;8.328;2023-11-21T04:00:41;4.75;;;1.95;;
7031;SDS011;3557;48.880;8.328;2023-11-21T04:03:09;4.05;;;2.15;;
7031;SDS011;3557;48.880;8.328;2023-11-21T04:05:36;5.20;;;1.50;;
7031;SDS011;3557;48.880;8.328;2023-11-21T04:08:05;4.60;;;1.70;;
7031;SDS011;3557;48.880;8.328;2023-11-21T04:10:32;2.83;;;1.65;;
7031;SDS011;3557;48.880;8.328;2023-11-21T04:13:00;4.97;;;2.65;;
7031;SDS011;3557;48.880;8.328;2023-11-21T04:15:27;4.50;;;1.80;;
7031;SDS011;3557;48.880;8.328;2023-11-21T04:17:54;4.35;;;2.05;;
7031;SDS011;3557;48.880;8.328;2023-11-21T04:20:22;4.82;;;1.70;;
7031;SDS011;3557;48.880;8.328;2023-11-21T04:22:49;2.75;;;1.70;;
7031;SDS011;3557;48.880;8.328;2023-11-21T04:25:18;3.58;;;1.80;;
7031;SDS011;3557;48.880;8.328;2023-11-21T04:27:45;6.68;;;2.10;;
7031;SDS011;3557;48.880;8.328;2023-11-21T04:30:13;3.30;;;1.60;;
7031;SDS011;3557;48.880;8.328;2023-11-21T04:32:41;3.97;;;1.73;;
7031;SDS011;3557;48.880;8.328;2023-11-21T04:35:08;6.65;;;2.00;;
7031;SDS011;3557;48.880;8.328;2023-11-21T04:37:36;3.60;;;1.77;;
7031;SDS011;3557;48.880;8.328;2023-11-21T04:40:03;2.30;;;1.50;;
7031;SDS011;3557;48.880;8.328;2023-11-21T04:42:34;5.82;;;1.70;;
7031;SDS011;3557;48.880;8.328;2023-11-21T04:45:02;3.17;;;1.50;;
7031;SDS011;3557;48.880;8.328;2023-11-21T04:47:33;2.13;;;1.40;;
7031;SDS011;3557;48.880;8.328;2023-11-21T04:50:01;2.03;;;1.33;;
7031;SDS011;3557;48.880;8.328;2023-11-21T04:52:29;3.30;;;1.25;;
7031;SDS011;3557;48.880;8.328;2023-11-21T04:54:58;3.50;;;1.55;;
7031;SDS011;3557;48.880;8.328;2023-11-21T04:57:26;3.60;;;1.30;;
7031;SDS011;3557;48.880;8.328;2023-11-21T04:59:56;2.22;;;1.73;;
7031;SDS011;3557;48.880;8.328;2023-11-21T05:02:23;3.30;;;1.60;;
7031;SDS011;3557;48.880;8.328;2023-11-21T05:04:50;4.53;;;1.50;;
7031;SDS011;3557;48.880;8.328;2023-11-21T05:07:18;4.05;;;1.52;;
7031;SDS011;3557;48.880;8.328;2023-11-21T05:09:46;2.72;;;1.38;;
7031;SDS011;3557;48.880;8.328;2023-11-21T05:12:13;5.18;;;2.38;;
7031;SDS011;3557;48.880;8.328;2023-11-21T05:14:40;4.28;;;1.60;;
7031;SDS011;3557;48.880;8.328;2023-11-21T05:17:10;2.22;;;1.52;;
7031;SDS011;3557;48.880;8.328;2023-11-21T05:19:37;3.92;;;1.77;;
7031;SDS011;3557;48.880;8.328;2023-11-21T05:22:05;2.75;;;1.77;;
7031;SDS011;3557;48.880;8.328;2023-11-21T05:24:33;3.70;;;1.77;;
7031;SDS011;3557;48.880;8.328;2023-11-21T05:27:01;2.45;;;1.73;;
7031;SDS011;3557;48.880;8.328;2023-11-21T05:29:28;4.22;;;1.60;;
7031;SDS011;3557;48.880;8.328;2023-11-21T05:31:56;4.00;;;2.30;;
7031;SDS011;3557;48.880;8.328;2023-11-21T05:34:25;3.95;;;1.67;;
7031;SDS011;3557;48.880;8.328;2023-11-21T05:36:52;4.20;;;1.55;;
7031;SDS011;3557;48.880;8.328;2023-11-21T05:39:19;3.38;;;1.90;;
7031;SDS011;3557;48.880;8.328;2023-11-21T05:41:46;7.03;;;1.95;;
7031;SDS011;3557;48.880;8.328;2023-11-21T05:44:14;4.25;;;1.70;;
7031;SDS011;3557;48.880;8.328;2023-11-21T05:46:42;3.33;;;1.83;;
7031;SDS011;3557;48.880;8.328;2023-11-21T05:49:09;2.67;;;1.52;;
7031;SDS011;3557;48.880;8.328;2023-11-21T05:51:38;2.80;;;1.70;;
7031;SDS011;3557;48.880;8.328;2023-11-21T05:54:05;3.53;;;2.03;;
7031;SDS011;3557;48.880;8.328;2023-11-21T05:56:33;2.90;;;2.17;;
7031;SDS011;3557;48.880;8.328;2023-11-21T05:59:01;5.30;;;2.97;;
7031;SDS011;3557;48.880;8.328;2023-11-21T06:01:28;3.83;;;2.00;;
7031;SDS011;3557;48.880;8.328;2023-11-21T06:03:55;6.55;;;2.30;;
7031;SDS011;3557;48.880;8.328;2023-11-21T06:06:24;3.60;;;2.17;;
7031;SDS011;3557;48.880;8.328;2023-11-21T06:08:53;3.03;;;2.13;;
7031;SDS011;3557;48.880;8.328;2023-11-21T06:11:20;3.65;;;2.20;;
7031;SDS011;3557;48.880;8.328;2023-11-21T06:13:48;5.82;;;2.67;;
7031;SDS011;3557;48.880;8.328;2023-11-21T06:16:15;4.57;;;2.40;;
7031;SDS011;3557;48.880;8.328;2023-11-21T06:18:44;6.85;;;3.47;;
7031;SDS011;3557;48.880;8.328;2023-11-21T06:21:12;6.32;;;3.45;;
7031;SDS011;3557;48.880;8.328;2023-11-21T06:23:41;5.00;;;2.78;;
7031;SDS011;3557;48.880;8.328;2023-11-21T06:26:10;5.90;;;2.92;;
7031;SDS011;3557;48.880;8.328;2023-11-21T06:28:38;5.85;;;2.97;;
7031;SDS011;3557;48.880;8.328;2023-11-21T06:31:06;7.55;;;4.50;;
7031;SDS011;3557;48.880;8.328;2023-11-21T06:33:33;6.53;;;3.35;;
7031;SDS011;3557;48.880;8.328;2023-11-21T06:36:01;7.25;;;3.92;;
7031;SDS011;3557;48.880;8.328;2023-11-21T06:38:28;3.92;;;3.33;;
7031;SDS011;3557;48.880;8.328;2023-11-21T06:40:57;4.47;;;3.30;;
7031;SDS011;3557;48.880;8.328;2023-11-21T06:43:28;4.68;;;2.97;;
7031;SDS011;3557;48.880;8.328;2023-11-21T06:45:56;4.50;;;3.20;;
7031;SDS011;3557;48.880;8.328;2023-11-21T06:48:23;6.47;;;3.92;;
7031;SDS011;3557;48.880;8.328;2023-11-21T06:50:51;5.25;;;2.95;;
7031;SDS011;3557;48.880;8.328;2023-11-21T06:53:18;4.78;;;2.90;;
7031;SDS011;3557;48.880;8.328;2023-11-21T06:55:45;4.15;;;3.55;;
7031;SDS011;3557;48.880;8.328;2023-11-21T06:58:13;5.15;;;3.20;;
7031;SDS011;3557;48.880;8.328;2023-11-21T07:00:42;4.57;;;3.60;;
7031;SDS011;3557;48.880;8.328;2023-11-21T07:03:12;4.43;;;3.13;;
7031;SDS011;3557;48.880;8.328;2023-11-21T07:05:39;5.28;;;3.40;;
7031;SDS011;3557;48.880;8.328;2023-11-21T07:08:07;5.85;;;3.33;;
7031;SDS011;3557;48.880;8.328;2023-11-21T07:10:34;4.80;;;3.60;;
7031;SDS011;3557;48.880;8.328;2023-11-21T07:13:03;5.30;;;3.50;;
7031;SDS011;3557;48.880;8.328;2023-11-21T07:15:32;4.53;;;3.40;;
7031;SDS011;3557;48.880;8.328;2023-11-21T07:18:00;6.93;;;3.38;;
7031;SDS011;3557;48.880;8.328;2023-11-21T07:20:28;3.95;;;3.40;;
7031;SDS011;3557;48.880;8.328;2023-11-21T07:22:55;5.13;;;3.47;;
7031;SDS011;3557;48.880;8.328;2023-11-21T07:25:23;3.28;;;2.97;;
7031;SDS011;3557;48.880;8.328;2023-11-21T07:27:50;5.30;;;3.15;;
7031;SDS011;3557;48.880;8.328;2023-11-21T07:30:18;3.95;;;2.92;;
7031;SDS011;3557;48.880;8.328;2023-11-21T07:32:45;3.92;;;2.70;;
7031;SDS011;3557;48.880;8.328;2023-11-21T07:35:14;7.32;;;3.30;;
7031;SDS011;3557;48.880;8.328;2023-11-21T07:37:41;6.18;;;3.50;;
7031;SDS011;3557;48.880;8.328;2023-11-21T07:40:09;5.82;;;3.90;;
7031;SDS011;3557;48.880;8.328;2023-11-21T07:42:38;5.55;;;3.65;;
7031;SDS011;3557;48.880;8.328;2023-11-21T07:45:08;4.38;;;3.28;;
7031;SDS011;3557;48.880;8.328;2023-11-21T07:47:36;3.97;;;3.15;;
7031;SDS011;3557;48.880;8.328;2023-11-21T07:50:04;5.85;;;3.20;;
7031;SDS011;3557;48.880;8.328;2023-11-21T07:52:34;4.78;;;3.30;;
7031;SDS011;3557;48.880;8.328;2023-11-21T07:55:08;7.15;;;3.42;;
7031;SDS011;3557;48.880;8.328;2023-11-21T07:57:36;3.90;;;3.03;;
7031;SDS011;3557;48.880;8.328;2023-11-21T08:00:04;5.45;;;3.00;;
7031;SDS011;3557;48.880;8.328;2023-11-21T08:02:37;6.20;;;3.10;;
7031;SDS011;3557;48.880;8.328;2023-11-21T08:05:07;5.40;;;2.92;;
7031;SDS011;3557;48.880;8.328;2023-11-21T08:07:37;4.82;;;2.72;;
7031;SDS011;3557;48.880;8.328;2023-11-21T08:10:05;5.43;;;2.45;;
7031;SDS011;3557;48.880;8.328;2023-11-21T08:12:35;6.43;;;2.80;;
7031;SDS011;3557;48.880;8.328;2023-11-21T08:15:04;3.33;;;2.60;;
7031;SDS011;3557;48.880;8.328;2023-11-21T08:17:33;4.28;;;2.80;;
7031;SDS011;3557;48.880;8.328;2023-11-21T08:20:01;2.67;;;2.45;;
7031;SDS011;3557;48.880;8.328;2023-11-21T08:22:28;3.17;;;2.50;;
7031;SDS011;3557;48.880;8.328;2023-11-21T08:24:57;5.63;;;2.60;;
7031;SDS011;3557;48.880;8.328;2023-11-21T08:27:25;2.67;;;2.47;;
7031;SDS011;3557;48.880;8.328;2023-11-21T08:29:52;3.78;;;2.28;;
7031;SDS011;3557;48.880;8.328;2023-11-21T08:32:20;3.20;;;2.13;;
7031;SDS011;3557;48.880;8.328;2023-11-21T08:34:47;2.58;;;2.08;;
7031;SDS011;3557;48.880;8.328;2023-11-21T08:37:15;3.70;;;2.30;;
7031;SDS011;3557;48.880;8.328;2023-11-21T08:39:43;4.63;;;2.13;;
7031;SDS011;3557;48.880;8.328;2023-11-21T08:42:12;3.30;;;2.20;;
7031;SDS011;3557;48.880;8.328;2023-11-21T08:44:40;3.28;;;2.05;;
7031;SDS011;3557;48.880;8.328;2023-11-21T08:47:07;2.78;;;2.00;;
7031;SDS011;3557;48.880;8.328;2023-11-21T08:49:34;4.20;;;1.90;;
7031;SDS011;3557;48.880;8.328;2023-11-21T08:52:03;3.45;;;1.95;;
7031;SDS011;3557;48.880;8.328;2023-11-21T08:54:31;2.10;;;1.90;;
7031;SDS011;3557;48.880;8.328;2023-11-21T08:57:00;3.05;;;2.00;;
7031;SDS011;3557;48.880;8.328;2023-11-21T08:59:29;2.92;;;1.98;;
7031;SDS011;3557;48.880;8.328;2023-11-21T09:01:56;3.03;;;1.98;;
7031;SDS011;3557;48.880;8.328;2023-11-21T09:04:23;4.93;;;2.00;;
7031;SDS011;3557;48.880;8.328;2023-11-21T09:06:51;2.38;;;2.00;;
7031;SDS011;3557;48.880;8.328;2023-11-21T09:09:18;3.03;;;2.10;;
7031;SDS011;3557;48.880;8.328;2023-11-21T09:11:46;4.45;;;2.30;;
7031;SDS011;3557;48.880;8.328;2023-11-21T09:14:14;3.47;;;2.08;;
7031;SDS011;3557;48.880;8.328;2023-11-21T09:16:44;2.38;;;2.17;;
7031;SDS011;3557;48.880;8.328;2023-11-21T09:19:12;2.97;;;2.42;;
7031;SDS011;3557;48.880;8.328;2023-11-21T09:21:40;2.90;;;2.60;;
7031;SDS011;3557;48.880;8.328;2023-11-21T09:24:08;2.63;;;2.40;;
7031;SDS011;3557;48.880;8.328;2023-11-21T09:26:35;3.15;;;2.85;;
7031;SDS011;3557;48.880;8.328;2023-11-21T09:29:03;3.83;;;3.00;;
7031;SDS011;3557;48.880;8.328;2023-11-21T09:31:30;4.22;;;3.35;;
7031;SDS011;3557;48.880;8.328;2023-11-21T09:34:00;3.58;;;3.13;;
7031;SDS011;3557;48.880;8.328;2023-11-21T09:36:28;5.10;;;3.97;;
7031;SDS011;3557;48.880;8.328;2023-11-21T09:38:55;5.07;;;3.25;;
7031;SDS011;3557;48.880;8.328;2023-11-21T09:41:23;3.80;;;3.40;;
7031;SDS011;3557;48.880;8.328;2023-11-21T09:43:57;5.72;;;4.28;;
7031;SDS011;3557;48.880;8.328;2023-11-21T09:46:25;5.97;;;4.60;;
7031;SDS011;3557;48.880;8.328;2023-11-21T09:48:55;7.18;;;5.55;;
7031;SDS011;3557;48.880;8.328;2023-11-21T09:51:26;9.43;;;5.47;;
7031;SDS011;3557;48.880;8.328;2023-11-21T09:53:55;5.22;;;4.00;;
7031;SDS011;3557;48.880;8.328;2023-11-21T09:56:24;7.75;;;4.68;;
7031;SDS011;3557;48.880;8.328;2023-11-21T09:58:52;5.43;;;4.20;;
7031;SDS011;3557;48.880;8.328;2023-11-21T10:01:22;10.15;;;8.65;;
7031;SDS011;3557;48.880;8.328;2023-11-21T10:03:50;9.50;;;8.02;;
7031;SDS011;3557;48.880;8.328;2023-11-21T10:06:21;9.82;;;8.30;;
7031;SDS011;3557;48.880;8.328;2023-11-21T10:08:50;9.75;;;6.75;;
7031;SDS011;3557;48.880;8.328;2023-11-21T10:11:18;5.72;;;5.05;;
7031;SDS011;3557;48.880;8.328;2023-11-21T10:13:47;6.80;;;5.53;;
7031;SDS011;3557;48.880;8.328;2023-11-21T10:16:16;7.03;;;5.70;;
7031;SDS011;3557;48.880;8.328;2023-11-21T10:18:47;8.80;;;6.03;;
7031;SDS011;3557;48.880;8.328;2023-11-21T10:21:15;7.60;;;6.13;;
7031;SDS011;3557;48.880;8.328;2023-11-21T10:23:45;6.82;;;6.13;;
7031;SDS011;3557;48.880;8.328;2023-11-21T10:26:12;7.50;;;6.18;;
7031;SDS011;3557;48.880;8.328;2023-11-21T10:28:41;8.73;;;6.93;;
7031;SDS011;3557;48.880;8.328;2023-11-21T10:31:20;8.13;;;6.95;;
7031;SDS011;3557;48.880;8.328;2023-11-21T10:33:49;9.18;;;7.97;;
7031;SDS011;3557;48.880;8.328;2023-11-21T10:36:24;9.25;;;7.05;;
7031;SDS011;3557;48.880;8.328;2023-11-21T10:38:54;8.13;;;7.32;;
7031;SDS011;3557;48.880;8.328;2023-11-21T10:41:22;12.93;;;8.18;;
7031;SDS011;3557;48.880;8.328;2023-11-21T10:43:52;8.27;;;7.40;;
7031;SDS011;3557;48.880;8.328;2023-11-21T10:46:21;10.10;;;7.00;;
7031;SDS011;3557;48.880;8.328;2023-11-21T10:48:54;6.10;;;5.50;;
7031;SDS011;3557;48.880;8.328;2023-11-21T10:51:21;9.43;;;6.30;;
7031;SDS011;3557;48.880;8.328;2023-11-21T10:53:51;8.77;;;5.80;;
7031;SDS011;3557;48.880;8.328;2023-11-21T10:56:19;37.65;;;20.73;;
7031;SDS011;3557;48.880;8.328;2023-11-21T10:58:50;13.43;;;8.95;;
7031;SDS011;3557;48.880;8.328;2023-11-21T11:01:18;11.60;;;8.57;;
7031;SDS011;3557;48.880;8.328;2023-11-21T11:03:47;12.55;;;8.07;;
7031;SDS011;3557;48.880;8.328;2023-11-21T11:06:15;9.40;;;5.55;;
7031;SDS011;3557;48.880;8.328;2023-11-21T11:08:42;10.75;;;6.50;;
7031;SDS011;3557;48.880;8.328;2023-11-21T11:11:11;7.45;;;5.95;;
7031;SDS011;3557;48.880;8.328;2023-11-21T11:13:40;6.25;;;4.82;;
7031;SDS011;3557;48.880;8.328;2023-11-21T11:16:11;6.97;;;4.78;;
7031;SDS011;3557;48.880;8.328;2023-11-21T11:18:42;7.55;;;4.78;;
7031;SDS011;3557;48.880;8.328;2023-11-21T11:21:14;14.00;;;10.93;;
7031;SDS011;3557;48.880;8.328;2023-11-21T11:23:55;8.35;;;6.60;;
7031;SDS011;3557;48.880;8.328;2023-11-21T11:26:41;8.10;;;5.45;;
7031;SDS011;3557;48.880;8.328;2023-11-21T11:29:17;16.40;;;8.27;;
7031;SDS011;3557;48.880;8.328;2023-11-21T11:31:55;8.60;;;5.43;;
7031;SDS011;3557;48.880;8.328;2023-11-21T11:34:34;6.13;;;5.30;;
7031;SDS011;3557;48.880;8.328;2023-11-21T11:37:06;5.70;;;4.45;;
7031;SDS011;3557;48.880;8.328;2023-11-21T11:39:35;6.43;;;5.47;;
7031;SDS011;3557;48.880;8.328;2023-11-21T11:42:07;5.90;;;4.43;;
7031;SDS011;3557;48.880;8.328;2023-11-21T11:44:54;8.82;;;7.95;;
7031;SDS011;3557;48.880;8.328;2023-11-21T11:47:23;6.68;;;4.35;;
7031;SDS011;3557;48.880;8.328;2023-11-21T11:50:05;4.95;;;4.43;;
7031;SDS011;3557;48.880;8.328;2023-11-21T11:52:38;5.97;;;4.63;;
7031;SDS011;3557;48.880;8.328;2023-11-21T11:55:07;5.47;;;4.38;;
7031;SDS011;3557;48.880;8.328;2023-11-21T11:57:38;7.60;;;6.85;;
7031;SDS011;3557;48.880;8.328;2023-11-21T12:00:08;6.38;;;5.75;;
7031;SDS011;3557;48.880;8.328;2023-11-21T12:02:44;5.43;;;4.75;;
7031;SDS011;3557;48.880;8.328;2023-11-21T12:05:13;5.97;;;5.38;;
7031;SDS011;3557;48.880;8.328;2023-11-21T12:07:43;7.07;;;5.38;;
7031;SDS011;3557;48.880;8.328;2023-11-21T12:10:18;6.78;;;5.53;;
7031;SDS011;3557;48.880;8.328;2023-11-21T12:12:50;6.05;;;5.43;;
7031;SDS011;3557;48.880;8.328;2023-11-21T12:15:20;7.47;;;5.90;;
7031;SDS011;3557;48.880;8.328;2023-11-21T12:17:48;6.10;;;5.50;;
7031;SDS011;3557;48.880;8.328;2023-11-21T12:20:18;8.65;;;6.47;;
7031;SDS011;3557;48.880;8.328;2023-11-21T12:22:48;7.90;;;5.90;;
7031;SDS011;3557;48.880;8.328;2023-11-21T12:25:17;7.38;;;6.18;;
7031;SDS011;3557;48.880;8.328;2023-11-21T12:27:45;7.53;;;6.32;;
7031;SDS011;3557;48.880;8.328;2023-11-21T12:30:15;8.25;;;7.25;;
7031;SDS011;3557;48.880;8.328;2023-11-21T12:32:47;8.02;;;6.32;;
7031;SDS011;3557;48.880;8.328;2023-11-21T12:35:16;8.98;;;7.03;;
7031;SDS011;3557;48.880;8.328;2023-11-21T12:37:46;7.63;;;6.47;;
7031;SDS011;3557;48.880;8.328;2023-11-21T12:40:14;7.68;;;6.45;;
7031;SDS011;3557;48.880;8.328;2023-11-21T12:42:43;7.75;;;6.60;;
7031;SDS011;3557;48.880;8.328;2023-11-21T12:45:18;7.00;;;6.30;;
7031;SDS011;3557;48.880;8.328;2023-11-21T12:47:48;6.85;;;5.88;;
7031;SDS011;3557;48.880;8.328;2023-11-21T12:50:20;8.35;;;6.20;;
7031;SDS011;3557;48.880;8.328;2023-11-21T12:52:50;10.18;;;6.97;;
7031;SDS011;3557;48.880;8.328;2023-11-21T12:55:19;8.43;;;6.80;;
7031;SDS011;3557;48.880;8.328;2023-11-21T12:57:48;7.90;;;6.80;;
7031;SDS011;3557;48.880;8.328;2023-11-21T13:00:19;9.52;;;6.25;;
7031;SDS011;3557;48.880;8.328;2023-11-21T13:02:56;8.30;;;6.32;;
7031;SDS011;3557;48.880;8.328;2023-11-21T13:05:25;8.75;;;6.32;;
7031;SDS011;3557;48.880;8.328;2023-11-21T13:07:54;10.35;;;7.35;;
7031;SDS011;3557;48.880;8.328;2023-11-21T13:10:23;7.13;;;6.43;;
7031;SDS011;3557;48.880;8.328;2023-11-21T13:12:54;8.63;;;6.57;;
7031;SDS011;3557;48.880;8.328;2023-11-21T13:15:23;10.15;;;7.00;;
7031;SDS011;3557;48.880;8.328;2023-11-21T13:17:52;9.30;;;7.60;;
7031;SDS011;3557;48.880;8.328;2023-11-21T13:20:22;8.30;;;6.88;;
7031;SDS011;3557;48.880;8.328;2023-11-21T13:22:50;7.97;;;6.15;;
7031;SDS011;3557;48.880;8.328;2023-11-21T13:25:22;8.60;;;7.10;;
7031;SDS011;3557;48.880;8.328;2023-11-21T13:27:52;7.10;;;6.43;;
7031;SDS011;3557;48.880;8.328;2023-11-21T13:30:20;8.85;;;6.50;;
7031;SDS011;3557;48.880;8.328;2023-11-21T13:32:51;8.80;;;6.82;;
7031;SDS011;3557;48.880;8.328;2023-11-21T13:35:23;9.98;;;6.65;;
7031;SDS011;3557;48.880;8.328;2023-11-21T13:38:03;7.20;;;6.50;;
7031;SDS011;3557;48.880;8.328;2023-11-21T13:40:32;7.50;;;6.40;;
7031;SDS011;3557;48.880;8.328;2023-11-21T13:43:07;7.95;;;7.13;;
7031;SDS011;3557;48.880;8.328;2023-11-21T13:45:35;8.02;;;6.22;;
7031;SDS011;3557;48.880;8.328;2023-11-21T13:48:04;8.13;;;6.45;;
7031;SDS011;3557;48.880;8.328;2023-11-21T13:50:36;7.65;;;6.85;;
7031;SDS011;3557;48.880;8.328;2023-11-21T13:53:04;8.65;;;6.43;;
7031;SDS011;3557;48.880;8.328;2023-11-21T13:55:41;8.30;;;5.97;;
7031;SDS011;3557;48.880;8.328;2023-11-21T13:58:09;8.70;;;7.28;;
7031;SDS011;3557;48.880;8.328;2023-11-21T14:00:43;8.48;;;6.20;;
7031;SDS011;3557;48.880;8.328;2023-11-21T14:03:11;6.55;;;5.70;;
7031;SDS011;3557;48.880;8.328;2023-11-21T14:05:48;6.45;;;5.60;;
7031;SDS011;3557;48.880;8.328;2023-11-21T14:08:18;6.53;;;5.68;;
7031;SDS011;3557;48.880;8.328;2023-11-21T14:10:46;6.32;;;5.00;;
7031;SDS011;3557;48.880;8.328;2023-11-21T14:13:20;6.32;;;5.30;;
7031;SDS011;3557;48.880;8.328;2023-11-21T14:15:48;5.00;;;4.60;;
7031;SDS011;3557;48.880;8.328;2023-11-21T14:18:19;5.18;;;4.68;;
7031;SDS011;3557;48.880;8.328;2023-11-21T14:20:58;5.03;;;4.63;;
7031;SDS011;3557;48.880;8.328;2023-11-21T14:23:25;5.57;;;5.07;;
7031;SDS011;3557;48.880;8.328;2023-11-21T14:25:53;5.55;;;5.05;;
7031;SDS011;3557;48.880;8.328;2023-11-21T14:28:21;5.32;;;4.82;;
7031;SDS011;3557;48.880;8.328;2023-11-21T14:30:48;5.50;;;4.85;;
7031;SDS011;3557;48.880;8.328;2023-11-21T14:33:16;5.53;;;4.90;;
7031;SDS011;3557;48.880;8.328;2023-11-21T14:35:44;8.07;;;5.50;;
7031;SDS011;3557;48.880;8.328;2023-11-21T14:38:13;5.95;;;5.35;;
7031;SDS011;3557;48.880;8.328;2023-11-21T14:40:41;6.28;;;5.32;;
7031;SDS011;3557;48.880;8.328;2023-11-21T14:43:09;6.38;;;5.88;;
7031;SDS011;3557;48.880;8.328;2023-11-21T14:45:38;8.73;;;5.53;;
7031;SDS011;3557;48.880;8.328;2023-11-21T14:48:05;7.07;;;5.30;;
7031;SDS011;3557;48.880;8.328;2023-11-21T14:50:41;6.68;;;5.30;;
7031;SDS011;3557;48.880;8.328;2023-11-21T14:53:37;6.32;;;5.45;;
7031;SDS011;3557;48.880;8.328;2023-11-21T14:56:09;5.47;;;4.97;;
7031;SDS011;3557;48.880;8.328;2023-11-21T14:58:46;5.57;;;5.05;;
7031;SDS011;3557;48.880;8.328;2023-11-21T15:01:13;7.38;;;5.38;;
7031;SDS011;3557;48.880;8.328;2023-11-21T15:03:49;6.45;;;5.15;;
7031;SDS011;3557;48.880;8.328;2023-11-21T15:06:16;5.47;;;4.97;;
7031;SDS011;3557;48.880;8.328;2023-11-21T15:08:53;6.55;;;5.15;;
7031;SDS011;3557;48.880;8.328;2023-11-21T15:11:39;9.52;;;6.18;;
7031;SDS011;3557;48.880;8.328;2023-11-21T15:14:07;8.75;;;7.13;;
7031;SDS011;3557;48.880;8.328;2023-11-21T15:16:38;6.55;;;5.20;;
7031;SDS011;3557;48.880;8.328;2023-11-21T15:19:09;55.33;;;30.60;;
7031;SDS011;3557;48.880;8.328;2023-11-21T15:21:43;8.45;;;6.80;;
7031;SDS011;3557;48.880;8.328;2023-11-21T15:24:12;8.02;;;5.68;;
7031;SDS011;3557;48.880;8.328;2023-11-21T15:26:40;7.70;;;6.03;;